Alexander Ziegler

Recruteur - Borussia Mönchengladbach
4 Avr 2027
Dimanche
Processus

Personnalité

Adaptabilité (18) Ambition (2) Controverse (1) Loyauté (4) Pression (10) Professionnalisme (14) Sportivité (7) Tempérament (1)

Profil

Style d'entraînement Démocratique
Diplôme Continental C
Détermination 11
Gestion des joueurs 10
Motivation 7
Discipline 12
Satisfaction professionnelle
50%
Fatigue
0%
Rôle Recruteur
Salaire 67.8K p/s
Contrat 14.03.2030

Performance

Comportement Normal
Efficacité de l'entraînement
20%
Développement des joueurs
50%
Prévention des blessures
55%
Mise en place tactique
50%

Événements récents

A participé à une réunion de recrutement maintenant
A évalué un joueur maintenant
A évalué un joueur maintenant
A évalué un joueur maintenant
A évalué un joueur maintenant
A évalué un joueur maintenant
A évalué un joueur 7j
A évalué un joueur 7j

Suivi en cours

190
Joueur Club Statut Capacité Confiance Observé Dernière observation Dernier vote
Richard Ledezma Guadalajara Actif 131 / 134 40% 4 03.04.2027 -
Paulinho Toluca Actif 134 / 127 40% 4 03.04.2027 -
Ramón Juárez Club America Actif 129 / 136 40% 2 03.04.2027 -
Florián Monzón Atlas Actif 133 / 134 40% 3 03.04.2027 -
Josh Windass Wrexham Actif 125 / 130 40% 1 03.04.2027 -
Mohamed Simakan Al-Nassr Actif 139 / 137 40% 1 03.04.2027 -
Munir Albacete Actif 127 / 119 40% 7 01.04.2027 -
Carlos Fernández Oviedo Actif 127 / 129 40% 1 01.04.2027 -
Mohamed Salah Trabzonspor Actif 177 / 181 40% 12 31.03.2027 -
Óscar Plano Leganés Actif 132 / 123 40% 10 30.03.2027 -
Adriano Bertaccini Anderlecht Actif 126 / 117 40% 3 30.03.2027 -
Anthony Lozano Santos Laguna Actif 128 / 116 40% 5 30.03.2027 -
Marcel Ruiz Toluca Actif 141 / 132 40% 2 30.03.2027 -
Elijah Dijkstra Feyenoord Actif 124 / 127 40% 2 30.03.2027 -
Helinho Toluca Actif 135 / 121 40% 1 30.03.2027 -
Mathis Amougou RC Strasbourg Actif 111 / 112 40% 1 30.03.2027 -
Juan Pablo De la Reta Maipú Actif 110 / 119 40% 1 30.03.2027 -
Nacer Tielemans Mouscron Actif 132 / 139 40% 4 28.03.2027 -
Enoch Mastoras Ajax Actif 122 / 129 40% 1 28.03.2027 -
Romelu Lukaku Fenerbahce Actif 163 / 153 40% 7 26.03.2027 -
Moussa Dembélé Al-Ettifaq Actif 128 / 129 40% 6 26.03.2027 -
Hany Mukhtar Hamburger SV Actif 134 / 132 40% 2 24.03.2027 -
Henry Martín Club America Actif 132 / 124 40% 2 24.03.2027 -
Nazar Voloshyn Dynamo Kyiv Actif 132 / 125 40% 2 24.03.2027 -
Vinícius Lopes Santa Clara Actif 120 / 124 40% 1 24.03.2027 -
Abraham Marcus Estrela da Amadora Actif 122 / 126 40% 1 24.03.2027 -
Gonzalo Plata Dinamo Moscow Actif 137 / 135 40% 1 24.03.2027 -
Peter Shalulile Mamelodi Sundowns Actif 128 / 115 40% 7 22.03.2027 -
Soufiane Rahimi Al Ain Actif 143 / 131 40% 7 22.03.2027 -
Roger Brugué Levante Actif 134 / 126 40% 6 22.03.2027 -
Erik Lira Cruz Azul Actif 143 / 135 40% 2 21.03.2027 -
Federico Pereira Toluca Actif 143 / 132 40% 3 21.03.2027 -
Luca Orellano Monterrey Actif 137 / 134 40% 3 20.03.2027 -
Josh Coburn Millwall Actif 120 / 117 40% 4 20.03.2027 -
Brian Rodríguez Club America Actif 136 / 139 40% 4 18.03.2027 -
Julien Ponceau Valladolid Actif 131 / 130 40% 1 18.03.2027 -
Bryan González Guadalajara Actif 135 / 129 40% 1 18.03.2027 -
Fashion Sakala Al-Fayha Actif 129 / 138 40% 3 17.03.2027 -
Jon Bautista Eibar Actif 129 / 126 40% 1 17.03.2027 -
Iván Gil Eibar Actif 126 / 124 40% 2 16.03.2027 -
Efraín Álvarez Guadalajara Actif 127 / 124 40% 2 16.03.2027 -
Rey Manaj Sivasspor Actif 131 / 122 40% 1 16.03.2027 -
César Huerta Pumas UNAM Actif 132 / 133 40% 1 16.03.2027 -
Marquinhos Spartak Moscow Actif 135 / 137 40% 1 16.03.2027 -
Ante Budimir Osasuna Actif 148 / 141 40% 5 14.03.2027 -
Ismael Díaz Leon Actif 133 / 114 40% 5 13.03.2027 -
Obed Vargas Atlético Madrid Actif 125 / 132 40% 2 13.03.2027 -
John Okoye Ebuka Ittihad Actif 113 / 119 40% 1 13.03.2027 -
Sergio Quintero La Equidad Actif 137 / 139 40% 1 13.03.2027 -
Tiago Freitas Benfica Actif 110 / 110 40% 1 13.03.2027 -
Ignacio Perruzzi San Lorenzo Actif 126 / 130 40% 1 12.03.2027 -
Chema Andrés VfB Stuttgart Actif 140 / 140 40% 1 12.03.2027 -
Marcus Holmgren Pedersen Olympiacos Actif 136 / 128 40% 2 10.03.2027 -
Jesús Orozco Chiquete Cruz Azul Actif 127 / 131 40% 1 10.03.2027 -
Diber Cambindo Leon Actif 123 / 130 40% 5 09.03.2027 -
Marlon Gomes Shakhtar Actif 135 / 130 40% 1 09.03.2027 -
Víctor Guzmán Monterrey Actif 133 / 126 40% 1 09.03.2027 -
Gustaf Lagerbielke Braga Actif 139 / 137 40% 1 09.03.2027 -
Festy Ebosele Basaksehir Actif 134 / 129 40% 1 07.03.2027 -
Bart van Rooij Twente Actif 138 / 135 40% 1 07.03.2027 -
Facundo Garcés Alavés Actif 128 / 126 40% 1 07.03.2027 -
Cesar Corona Veracruz Actif 136 / 124 40% 4 05.03.2027 -
Gabriel Sara Galatasaray Actif 141 / 146 40% 2 04.03.2027 -
Diego Costa Krasnodar Actif 136 / 136 40% 2 04.03.2027 -
Patrik Wålemark Lech Actif 130 / 119 40% 3 03.03.2027 -
Sadio Mané Al-Nassr Actif 146 / 133 40% 6 27.02.2027 -
Mousa Meunier KV Oostende Actif 127 / 127 40% 6 27.02.2027 -
Vitinho Botafogo Actif 137 / 127 40% 1 27.02.2027 -
Joris Chotard Stade Brestois Actif 130 / 138 40% 1 27.02.2027 -
Hugo Cuypers Monterrey Actif 125 / 133 40% 2 21.02.2027 -
Iqraam Rayners Mamelodi Sundowns Actif 132 / 141 40% 1 21.02.2027 -
Tyrell Malacia Leicester City Actif 133 / 139 40% 1 19.02.2027 -
Peter Federico Gornik Zabrze Actif 123 / 117 40% 2 17.02.2027 -
Metinho Basel Actif 132 / 135 40% 1 17.02.2027 -
Lorenzo Pirola Olympiacos Actif 134 / 141 40% 1 17.02.2027 -
Fidel Ambríz Monterrey Actif 134 / 142 40% 1 17.02.2027 -
Ilias Sebaoui Sint-Truiden Actif 132 / 125 40% 1 16.02.2027 -
Álex Lizancos Burgos Actif 131 / 132 40% 1 16.02.2027 -
Sergey Pinyaev Lokomotiv Moscow Actif 124 / 133 40% 3 15.02.2027 -
Jackson Muleka Konyaspor Actif 131 / 133 40% 2 15.02.2027 -
Ousmane Camara Castellón Actif 121 / 121 40% 1 15.02.2027 -
Brian Gutiérrez Guadalajara Actif 132 / 139 40% 1 11.02.2027 -
Mario Stroeykens Anderlecht Actif 125 / 135 40% 1 10.02.2027 -
Chupete Málaga Actif 127 / 137 40% 2 08.02.2027 -
Jhon Córdoba Krasnodar Actif 140 / 130 40% 1 07.02.2027 -
Achraf Bencharki Al Ahly Actif 131 / 117 40% 2 06.02.2027 -
Nicolás Ibáñez Cruz Azul Actif 139 / 129 40% 1 05.02.2027 -
Omar Campos Cruz Azul Actif 128 / 134 40% 1 05.02.2027 -
Sergio Barreto Pachuca Actif 129 / 142 40% 1 04.02.2027 -
Thierry Rendall Correia Venezia Actif 141 / 143 40% 1 26.01.2027 -
José Arnáiz Granada Actif 131 / 129 40% 4 24.01.2027 -
Luciano Gondou CSKA Moscow Actif 126 / 121 40% 2 24.01.2027 -
Derry Scherhant SC Freiburg Actif 124 / 123 40% 1 23.01.2027 -
Samuel Essende Young Boys Actif 127 / 122 40% 9 22.01.2027 -
Andrej Kramarić TSG Hoffenheim Refusé 150 / 137 40% 3 22.01.2027 Refuser
Talisca Fenerbahce Actif 141 / 135 40% 2 19.01.2027 -
Yassine Kechta Leganés Actif 130 / 131 40% 1 15.01.2027 -
Francis Amuzu Grêmio Actif 134 / 133 40% 1 15.01.2027 -
Anthony Patterson Wrexham Actif 132 / 124 40% 5 02.01.2027 -
Heorhii Yermakov Metalist Actif 120 / 111 40% 2 02.01.2027 -
Michael Cooper Sheffield United Actif 126 / 131 40% 1 02.01.2027 -
Ante Budimir Osasuna Perdu 145 / 151 40% 5 31.12.2026 -
Michy Fellaini KV Oostende Actif 133 / 140 40% 1 31.12.2026 -
Leo Román Deportivo La Coruña Actif 145 / 145 40% 5 30.12.2026 -
Bernardo Fontes Braga Actif 128 / 130 40% 3 30.12.2026 -
Karl Hein Werder Bremen Actif 139 / 133 40% 3 30.12.2026 -
Chris Ramos Botafogo Actif 130 / 121 40% 3 28.12.2026 -
Alexis Vega Toluca Actif 150 / 144 40% 4 28.12.2026 -
George Wickens Lincoln City Actif 111 / 108 40% 1 24.12.2026 -
Andreas Jungdal Westerlo Actif 124 / 120 40% 1 24.12.2026 -
José Manuel López Palmeiras Actif 137 / 132 40% 1 23.12.2026 -
Grégoire Coudert Burnley Actif 127 / 135 40% 4 22.12.2026 -
Justin Hammel Grasshopper Actif 119 / 123 40% 3 20.12.2026 -
Radek Vítek Middlesbrough Actif 136 / 137 40% 4 20.12.2026 -
Kevin Behrens Lugano Actif 122 / 122 40% 5 20.12.2026 -
Lazar Carević Famalicao Actif 133 / 127 40% 1 20.12.2026 -
Philippe Keny Zurich Actif 120 / 115 40% 1 18.12.2026 -
Yorbe Vertessen Red Bull Salzburg Actif 127 / 134 40% 1 12.12.2026 -
Ivan Cavaleiro Zurich Actif 116 / 114 40% 3 09.12.2026 -
Nikita Kokarev Krylya Sovetov Actif 120 / 125 40% 1 07.12.2026 -
Pascal Loretz Luzern Actif 124 / 123 40% 6 06.12.2026 -
Jakub Surovčík Sparta Prague Actif 114 / 111 40% 1 06.12.2026 -
Gonzalo Crettaz NEC Actif 130 / 125 40% 1 06.12.2026 -
Michaël Frey Grasshopper Actif 116 / 119 40% 5 05.12.2026 -
Igor Nikić Mirandés Actif 115 / 117 40% 3 03.12.2026 -
Jason Januzaj Mouscron Actif 146 / 145 40% 1 03.12.2026 -
Axel Alderweireld KV Oostende Actif 143 / 146 40% 2 01.12.2026 -
Niklas Steffen Thun Actif 114 / 110 40% 3 01.12.2026 -
Guilherme Fernandes Córdoba Actif 128 / 125 40% 1 01.12.2026 -
Henry Martín Club America Perdu 143 / 135 40% 6 29.11.2026 -
Nicolás Ibáñez Cruz Azul Perdu 131 / 139 40% 2 29.11.2026 -
Petter Nosa Dahl Rapid Wien Actif 121 / 121 40% 2 28.11.2026 -
Maurits Kjærgaard Red Bull Salzburg Actif 129 / 136 40% 3 27.11.2026 -
Matteo di Giusto Luzern Actif 123 / 120 40% 4 26.11.2026 -
Johannes Eggestein Austria Wien Actif 125 / 126 40% 1 26.11.2026 -
Luiz Júnior Villarreal Actif 141 / 151 40% 2 25.11.2026 -
Hugo Souza Corinthians Actif 136 / 132 40% 2 24.11.2026 -
Ben Voll St. Pauli Actif 117 / 114 40% 2 23.11.2026 -
Beau Reus Waasland-Beveren Actif 122 / 123 40% 1 23.11.2026 -
Antoine Griezmann Orlando City Actif 159 / 162 40% 4 22.11.2026 -
Felipe Zenobio Tigre Actif 129 / 131 40% 6 22.11.2026 -
Ruslan Neshcheret Dynamo Kyiv Actif 122 / 116 40% 1 22.11.2026 -
Juan Carlos Arana Racing Santander Actif 129 / 128 40% 1 21.11.2026 -
Jamie Cumming Oxford United Actif 121 / 121 40% 2 18.11.2026 -
Carl Rushworth Coventry City Actif 137 / 132 40% 1 18.11.2026 -
Donis Avdijaj Wolfsberger AC Actif 116 / 122 40% 4 17.11.2026 -
Elia Caprile Cagliari Actif 146 / 144 40% 1 15.11.2026 -
Josias Lukembila Sion Actif 116 / 118 40% 3 14.11.2026 -
Mio Backhaus SC Freiburg Actif 129 / 131 40% 2 12.11.2026 -
Christian Früchtl Red Bull Salzburg Actif 118 / 112 40% 3 12.11.2026 -
Nicolás Sumavil Platense Actif 114 / 112 40% 2 12.11.2026 -
Jonathan Calleri Sport Recife Actif 137 / 135 40% 1 10.11.2026 -
Lukas Gütlbauer Wolfsberger AC Actif 114 / 113 40% 2 02.11.2026 -
Jonmi Magunagoitia Eibar Actif 123 / 118 40% 1 02.11.2026 -
Kostantis Tzolakis Hull City Actif 143 / 142 40% 2 01.11.2026 -
Pablo Campos Levante Actif 129 / 135 40% 1 30.10.2026 -
Marvin Keller Young Boys Actif 138 / 142 40% 2 27.10.2026 -
Dmytro Riznyk Shakhtar Actif 142 / 140 40% 1 27.10.2026 -
Sinan Karweina Luzern Actif 115 / 108 40% 2 26.10.2026 -
Ilyas Chouaref Sion Actif 118 / 119 40% 2 23.10.2026 -
Exequiel Zeballos Boca Juniors Actif 135 / 134 40% 4 23.10.2026 -
Paulinho Toluca Perdu 139 / 130 40% 1 22.10.2026 -
Louis Munteanu DC United Actif 123 / 117 40% 2 20.10.2026 -
Albian Ajeti Basel Actif 118 / 122 40% 2 19.10.2026 -
Oli McBurnie Hull City Actif 133 / 134 40% 1 18.10.2026 -
Michael Barrios Once Caldas Actif 122 / 113 40% 1 15.10.2026 -
Mauro Silveira Junior Actif 115 / 116 40% 1 14.10.2026 -
Talles Magno New York City Actif 133 / 132 40% 1 09.10.2026 -
Denis Bouanga Los Angeles Football Club Actif 137 / 141 40% 1 03.10.2026 -
Juan-José Perea Zurich Actif 125 / 120 40% 1 03.10.2026 -
Leo Ceara Kashima Antlers Actif 132 / 127 40% 1 02.10.2026 -
Ángel Correa River Plate Actif 144 / 142 40% 2 01.10.2026 -
Anthony Racioppi Sion Actif 122 / 124 40% 1 29.09.2026 -
Patrick Schulte Columbus Crew Actif 124 / 125 40% 3 27.09.2026 -
James Trafford Leeds United Actif 138 / 137 40% 3 25.09.2026 -
Luciano Jachfe Nueva Chicago Actif 118 / 114 40% 1 18.09.2026 -
Chris Brady Chicago Fire Actif 132 / 131 40% 1 18.09.2026 -
Danny Welbeck Chelsea Actif 144 / 151 40% 1 17.09.2026 -
Antony Alonso Deportivo Riestra Actif 125 / 124 40% 1 17.09.2026 -
Jakub Stolarczyk Leicester City Actif 126 / 134 40% 1 16.09.2026 -
Felipe Parra Envigado Actif 120 / 117 40% 1 14.09.2026 -
Daniil Khudyakov Sturm Graz Actif 121 / 118 40% 1 14.09.2026 -
Abel Hernández Penarol Actif 127 / 128 40% 1 10.09.2026 -
Jonas Urbig Bayern Munich Actif 139 / 133 40% 1 09.09.2026 -
Martín Ojeda Orlando City Actif 137 / 135 40% 2 02.09.2026 -
Dejan Joveljić Seattle Sounders Actif 130 / 136 40% 1 02.09.2026 -
Seedy Jatta Sturm Graz Actif 120 / 122 40% 1 18.08.2026 -
Daniel Dos Santos Lugano Actif 113 / 128 40% 1 10.08.2026 -
Uwe Franke Mouscron Actif 134 / 123 40% 2 03.08.2026 -
Darian Maleš Young Boys Actif 119 / 122 40% 1 01.08.2026 -